Terminal Aerodrome Forecast
Issued by NWS

Home | Current Version | Previous Version | Text Only | Print | Product List | Glossary On
Versions: 1 2 3 4 5 6 7 8 9 10 11 12 13 14 15 16 17 18 19 20 21
000
FTUS44 KMAF 180600 AAA
TAFHOB
TAF AMD
KHOB 180652Z 1807/1906 VRB03KT P6SM BKN009
     FM181200 08007KT P6SM BKN020
     FM181800 10010KT P6SM BKN040
     FM190000 06008KT P6SM OVC070
     FM190200 10007KT P6SM OVC030
     FM190400 11006KT P6SM OVC009=

USA.gov is the U.S. government's official web portal to all federal, state and local government web resources and services.